sensor_id;sensor_type;location;lat;lon;timestamp;P1;durP1;ratioP1;P2;durP2;ratioP2
46745;SDS011;32493;50.514;9.678;2024-01-07T00:02:14;49.05;;;20.38;;
46745;SDS011;32493;50.514;9.678;2024-01-07T00:04:43;46.47;;;20.15;;
46745;SDS011;32493;50.514;9.678;2024-01-07T00:07:10;46.60;;;20.95;;
46745;SDS011;32493;50.514;9.678;2024-01-07T00:09:38;52.42;;;22.33;;
46745;SDS011;32493;50.514;9.678;2024-01-07T00:12:07;45.40;;;22.50;;
46745;SDS011;32493;50.514;9.678;2024-01-07T00:14:37;60.38;;;23.60;;
46745;SDS011;32493;50.514;9.678;2024-01-07T00:17:06;63.67;;;23.67;;
46745;SDS011;32493;50.514;9.678;2024-01-07T00:19:33;50.65;;;21.70;;
46745;SDS011;32493;50.514;9.678;2024-01-07T00:22:02;52.33;;;20.63;;
46745;SDS011;32493;50.514;9.678;2024-01-07T00:24:35;47.63;;;21.35;;
46745;SDS011;32493;50.514;9.678;2024-01-07T00:27:06;48.45;;;19.88;;
46745;SDS011;32493;50.514;9.678;2024-01-07T00:29:35;48.65;;;20.33;;
46745;SDS011;32493;50.514;9.678;2024-01-07T00:32:02;49.67;;;18.80;;
46745;SDS011;32493;50.514;9.678;2024-01-07T00:36:58;49.53;;;18.90;;
46745;SDS011;32493;50.514;9.678;2024-01-07T00:39:26;41.00;;;18.38;;
46745;SDS011;32493;50.514;9.678;2024-01-07T00:41:56;43.13;;;16.80;;
46745;SDS011;32493;50.514;9.678;2024-01-07T00:44:23;45.75;;;17.17;;
46745;SDS011;32493;50.514;9.678;2024-01-07T00:46:53;39.15;;;17.63;;
46745;SDS011;32493;50.514;9.678;2024-01-07T00:49:20;35.97;;;15.50;;
46745;SDS011;32493;50.514;9.678;2024-01-07T00:51:51;47.45;;;17.08;;
46745;SDS011;32493;50.514;9.678;2024-01-07T00:54:23;41.95;;;16.38;;
46745;SDS011;32493;50.514;9.678;2024-01-07T00:56:50;40.08;;;16.17;;
46745;SDS011;32493;50.514;9.678;2024-01-07T01:01:47;39.42;;;15.95;;
46745;SDS011;32493;50.514;9.678;2024-01-07T01:04:17;41.55;;;15.95;;
46745;SDS011;32493;50.514;9.678;2024-01-07T01:06:45;37.17;;;15.13;;
46745;SDS011;32493;50.514;9.678;2024-01-07T01:09:12;40.35;;;15.77;;
46745;SDS011;32493;50.514;9.678;2024-01-07T01:11:41;37.42;;;15.80;;
46745;SDS011;32493;50.514;9.678;2024-01-07T01:14:11;41.35;;;17.33;;
46745;SDS011;32493;50.514;9.678;2024-01-07T01:16:39;35.85;;;16.05;;
46745;SDS011;32493;50.514;9.678;2024-01-07T01:19:07;40.80;;;16.00;;
46745;SDS011;32493;50.514;9.678;2024-01-07T01:21:36;40.08;;;16.05;;
46745;SDS011;32493;50.514;9.678;2024-01-07T01:24:05;41.53;;;15.55;;
46745;SDS011;32493;50.514;9.678;2024-01-07T01:29:02;38.40;;;14.82;;
46745;SDS011;32493;50.514;9.678;2024-01-07T01:31:29;43.13;;;16.48;;
46745;SDS011;32493;50.514;9.678;2024-01-07T01:33:56;45.58;;;15.77;;
46745;SDS011;32493;50.514;9.678;2024-01-07T01:36:24;41.70;;;16.23;;
46745;SDS011;32493;50.514;9.678;2024-01-07T01:38:52;37.95;;;16.05;;
46745;SDS011;32493;50.514;9.678;2024-01-07T01:43:49;36.03;;;14.23;;
46745;SDS011;32493;50.514;9.678;2024-01-07T01:46:17;40.28;;;16.25;;
46745;SDS011;32493;50.514;9.678;2024-01-07T01:48:45;42.55;;;15.85;;
46745;SDS011;32493;50.514;9.678;2024-01-07T01:51:15;44.10;;;16.67;;
46745;SDS011;32493;50.514;9.678;2024-01-07T01:53:42;40.35;;;16.33;;
46745;SDS011;32493;50.514;9.678;2024-01-07T01:56:11;41.95;;;15.75;;
46745;SDS011;32493;50.514;9.678;2024-01-07T01:58:40;39.17;;;16.00;;
46745;SDS011;32493;50.514;9.678;2024-01-07T02:01:10;42.20;;;16.02;;
46745;SDS011;32493;50.514;9.678;2024-01-07T02:03:39;44.45;;;17.60;;
46745;SDS011;32493;50.514;9.678;2024-01-07T02:06:06;39.72;;;15.65;;
46745;SDS011;32493;50.514;9.678;2024-01-07T02:08:36;39.92;;;15.65;;
46745;SDS011;32493;50.514;9.678;2024-01-07T02:11:18;44.00;;;16.02;;
46745;SDS011;32493;50.514;9.678;2024-01-07T02:13:46;41.67;;;15.63;;
46745;SDS011;32493;50.514;9.678;2024-01-07T02:16:14;44.17;;;17.35;;
46745;SDS011;32493;50.514;9.678;2024-01-07T02:18:44;39.90;;;15.25;;
46745;SDS011;32493;50.514;9.678;2024-01-07T02:21:14;39.60;;;15.73;;
46745;SDS011;32493;50.514;9.678;2024-01-07T02:23:44;41.20;;;16.17;;
46745;SDS011;32493;50.514;9.678;2024-01-07T02:28:39;32.40;;;13.45;;
46745;SDS011;32493;50.514;9.678;2024-01-07T02:31:07;37.97;;;14.55;;
46745;SDS011;32493;50.514;9.678;2024-01-07T02:33:38;37.33;;;15.50;;
46745;SDS011;32493;50.514;9.678;2024-01-07T02:36:09;32.33;;;13.38;;
46745;SDS011;32493;50.514;9.678;2024-01-07T02:38:41;33.45;;;14.73;;
46745;SDS011;32493;50.514;9.678;2024-01-07T02:41:09;30.63;;;13.98;;
46745;SDS011;32493;50.514;9.678;2024-01-07T02:43:37;33.65;;;14.55;;
46745;SDS011;32493;50.514;9.678;2024-01-07T02:46:07;28.73;;;13.05;;
46745;SDS011;32493;50.514;9.678;2024-01-07T02:48:37;31.63;;;13.45;;
46745;SDS011;32493;50.514;9.678;2024-01-07T02:53:32;25.10;;;10.35;;
46745;SDS011;32493;50.514;9.678;2024-01-07T02:56:00;23.35;;;10.43;;
46745;SDS011;32493;50.514;9.678;2024-01-07T02:58:27;19.75;;;9.95;;
46745;SDS011;32493;50.514;9.678;2024-01-07T03:00:58;21.05;;;9.15;;
46745;SDS011;32493;50.514;9.678;2024-01-07T03:03:26;19.05;;;9.50;;
46745;SDS011;32493;50.514;9.678;2024-01-07T03:05:58;22.05;;;10.43;;
46745;SDS011;32493;50.514;9.678;2024-01-07T03:08:27;21.45;;;9.73;;
46745;SDS011;32493;50.514;9.678;2024-01-07T03:10:55;24.05;;;10.32;;
46745;SDS011;32493;50.514;9.678;2024-01-07T03:13:22;22.15;;;9.00;;
46745;SDS011;32493;50.514;9.678;2024-01-07T03:15:49;26.75;;;10.82;;
46745;SDS011;32493;50.514;9.678;2024-01-07T03:18:19;28.30;;;11.57;;
46745;SDS011;32493;50.514;9.678;2024-01-07T03:20:50;28.25;;;10.80;;
46745;SDS011;32493;50.514;9.678;2024-01-07T03:23:20;29.38;;;12.63;;
46745;SDS011;32493;50.514;9.678;2024-01-07T03:25:57;27.00;;;11.70;;
46745;SDS011;32493;50.514;9.678;2024-01-07T03:28:27;31.70;;;12.05;;
46745;SDS011;32493;50.514;9.678;2024-01-07T03:31:03;26.80;;;12.23;;
46745;SDS011;32493;50.514;9.678;2024-01-07T03:33:36;24.90;;;10.65;;
46745;SDS011;32493;50.514;9.678;2024-01-07T03:36:12;26.90;;;10.32;;
46745;SDS011;32493;50.514;9.678;2024-01-07T03:38:42;24.13;;;10.18;;
46745;SDS011;32493;50.514;9.678;2024-01-07T03:41:17;27.48;;;10.82;;
46745;SDS011;32493;50.514;9.678;2024-01-07T03:43:47;25.40;;;10.77;;
46745;SDS011;32493;50.514;9.678;2024-01-07T03:46:19;23.95;;;10.32;;
46745;SDS011;32493;50.514;9.678;2024-01-07T03:48:54;21.40;;;9.98;;
46745;SDS011;32493;50.514;9.678;2024-01-07T03:51:24;26.65;;;10.02;;
46745;SDS011;32493;50.514;9.678;2024-01-07T03:53:53;21.50;;;9.98;;
46745;SDS011;32493;50.514;9.678;2024-01-07T03:56:22;23.83;;;8.82;;
46745;SDS011;32493;50.514;9.678;2024-01-07T03:58:51;23.13;;;10.52;;
46745;SDS011;32493;50.514;9.678;2024-01-07T04:01:19;23.00;;;10.05;;
46745;SDS011;32493;50.514;9.678;2024-01-07T04:03:51;22.13;;;10.05;;
46745;SDS011;32493;50.514;9.678;2024-01-07T04:06:18;23.60;;;9.95;;
46745;SDS011;32493;50.514;9.678;2024-01-07T04:08:47;24.17;;;10.00;;
46745;SDS011;32493;50.514;9.678;2024-01-07T04:11:28;22.10;;;9.82;;
46745;SDS011;32493;50.514;9.678;2024-01-07T04:13:57;20.85;;;9.43;;
46745;SDS011;32493;50.514;9.678;2024-01-07T04:16:31;20.90;;;9.15;;
46745;SDS011;32493;50.514;9.678;2024-01-07T04:19:00;24.15;;;9.55;;
46745;SDS011;32493;50.514;9.678;2024-01-07T04:21:28;19.15;;;8.23;;
46745;SDS011;32493;50.514;9.678;2024-01-07T04:23:56;25.30;;;10.05;;
46745;SDS011;32493;50.514;9.678;2024-01-07T04:26:24;22.10;;;9.55;;
46745;SDS011;32493;50.514;9.678;2024-01-07T04:28:53;25.20;;;10.60;;
46745;SDS011;32493;50.514;9.678;2024-01-07T04:31:20;27.55;;;9.50;;
46745;SDS011;32493;50.514;9.678;2024-01-07T04:33:49;24.35;;;9.07;;
46745;SDS011;32493;50.514;9.678;2024-01-07T04:36:19;24.70;;;9.73;;
46745;SDS011;32493;50.514;9.678;2024-01-07T04:38:50;22.58;;;9.25;;
46745;SDS011;32493;50.514;9.678;2024-01-07T04:41:23;22.75;;;9.80;;
46745;SDS011;32493;50.514;9.678;2024-01-07T04:43:53;21.77;;;9.45;;
46745;SDS011;32493;50.514;9.678;2024-01-07T04:46:25;21.73;;;8.32;;
46745;SDS011;32493;50.514;9.678;2024-01-07T04:48:55;27.27;;;10.55;;
46745;SDS011;32493;50.514;9.678;2024-01-07T04:51:24;25.55;;;10.20;;
46745;SDS011;32493;50.514;9.678;2024-01-07T04:53:52;23.60;;;10.50;;
46745;SDS011;32493;50.514;9.678;2024-01-07T04:56:22;22.83;;;11.02;;
46745;SDS011;32493;50.514;9.678;2024-01-07T04:58:50;31.73;;;11.82;;
46745;SDS011;32493;50.514;9.678;2024-01-07T05:01:20;24.00;;;11.50;;
46745;SDS011;32493;50.514;9.678;2024-01-07T05:03:48;31.40;;;11.70;;
46745;SDS011;32493;50.514;9.678;2024-01-07T05:06:17;27.20;;;11.02;;
46745;SDS011;32493;50.514;9.678;2024-01-07T05:08:47;27.83;;;11.48;;
46745;SDS011;32493;50.514;9.678;2024-01-07T05:11:15;29.08;;;11.88;;
46745;SDS011;32493;50.514;9.678;2024-01-07T05:13:44;28.15;;;12.02;;
46745;SDS011;32493;50.514;9.678;2024-01-07T05:16:18;27.95;;;12.38;;
46745;SDS011;32493;50.514;9.678;2024-01-07T05:18:48;23.25;;;11.13;;
46745;SDS011;32493;50.514;9.678;2024-01-07T05:21:19;26.60;;;12.05;;
46745;SDS011;32493;50.514;9.678;2024-01-07T05:23:49;26.73;;;12.27;;
46745;SDS011;32493;50.514;9.678;2024-01-07T05:26:16;25.08;;;12.25;;
46745;SDS011;32493;50.514;9.678;2024-01-07T05:28:45;24.35;;;10.70;;
46745;SDS011;32493;50.514;9.678;2024-01-07T05:31:18;26.92;;;12.48;;
46745;SDS011;32493;50.514;9.678;2024-01-07T05:33:47;23.45;;;11.73;;
46745;SDS011;32493;50.514;9.678;2024-01-07T05:36:15;22.33;;;11.68;;
46745;SDS011;32493;50.514;9.678;2024-01-07T05:38:44;21.15;;;10.77;;
46745;SDS011;32493;50.514;9.678;2024-01-07T05:41:11;22.08;;;11.25;;
46745;SDS011;32493;50.514;9.678;2024-01-07T05:43:40;22.48;;;10.40;;
46745;SDS011;32493;50.514;9.678;2024-01-07T05:46:08;17.50;;;9.82;;
46745;SDS011;32493;50.514;9.678;2024-01-07T05:48:46;18.00;;;9.80;;
46745;SDS011;32493;50.514;9.678;2024-01-07T05:51:16;16.60;;;9.32;;
46745;SDS011;32493;50.514;9.678;2024-01-07T05:53:46;19.13;;;10.35;;
46745;SDS011;32493;50.514;9.678;2024-01-07T05:56:15;18.00;;;10.13;;
46745;SDS011;32493;50.514;9.678;2024-01-07T05:58:42;16.23;;;8.68;;
46745;SDS011;32493;50.514;9.678;2024-01-07T06:01:18;15.82;;;8.45;;
46745;SDS011;32493;50.514;9.678;2024-01-07T06:03:47;14.52;;;8.27;;
46745;SDS011;32493;50.514;9.678;2024-01-07T06:06:15;15.70;;;8.88;;
46745;SDS011;32493;50.514;9.678;2024-01-07T06:08:46;17.27;;;8.63;;
46745;SDS011;32493;50.514;9.678;2024-01-07T06:11:19;13.20;;;7.45;;
46745;SDS011;32493;50.514;9.678;2024-01-07T06:13:47;12.90;;;7.28;;
46745;SDS011;32493;50.514;9.678;2024-01-07T06:16:19;14.30;;;8.00;;
46745;SDS011;32493;50.514;9.678;2024-01-07T06:18:46;15.25;;;7.80;;
46745;SDS011;32493;50.514;9.678;2024-01-07T06:21:14;14.60;;;7.45;;
46745;SDS011;32493;50.514;9.678;2024-01-07T06:23:45;13.48;;;7.65;;
46745;SDS011;32493;50.514;9.678;2024-01-07T06:26:14;11.93;;;6.80;;
46745;SDS011;32493;50.514;9.678;2024-01-07T06:28:42;12.63;;;7.93;;
46745;SDS011;32493;50.514;9.678;2024-01-07T06:33:40;11.98;;;6.80;;
46745;SDS011;32493;50.514;9.678;2024-01-07T06:36:10;12.68;;;7.25;;
46745;SDS011;32493;50.514;9.678;2024-01-07T06:38:40;13.25;;;6.80;;
46745;SDS011;32493;50.514;9.678;2024-01-07T06:41:12;12.27;;;6.85;;
46745;SDS011;32493;50.514;9.678;2024-01-07T06:43:43;13.60;;;7.40;;
46745;SDS011;32493;50.514;9.678;2024-01-07T06:46:12;14.80;;;8.27;;
46745;SDS011;32493;50.514;9.678;2024-01-07T06:48:40;12.88;;;7.30;;
46745;SDS011;32493;50.514;9.678;2024-01-07T06:51:14;12.50;;;6.55;;
46745;SDS011;32493;50.514;9.678;2024-01-07T06:53:43;13.20;;;7.55;;
46745;SDS011;32493;50.514;9.678;2024-01-07T06:56:14;12.60;;;7.15;;
46745;SDS011;32493;50.514;9.678;2024-01-07T06:58:44;12.27;;;7.28;;
46745;SDS011;32493;50.514;9.678;2024-01-07T07:01:12;12.40;;;6.93;;
46745;SDS011;32493;50.514;9.678;2024-01-07T07:03:40;13.98;;;7.35;;
46745;SDS011;32493;50.514;9.678;2024-01-07T07:06:10;13.60;;;7.90;;
46745;SDS011;32493;50.514;9.678;2024-01-07T07:08:49;13.80;;;7.55;;
46745;SDS011;32493;50.514;9.678;2024-01-07T07:11:17;14.02;;;7.53;;
46745;SDS011;32493;50.514;9.678;2024-01-07T07:13:45;12.00;;;7.20;;
46745;SDS011;32493;50.514;9.678;2024-01-07T07:16:13;14.23;;;7.80;;
46745;SDS011;32493;50.514;9.678;2024-01-07T07:18:42;14.55;;;7.85;;
46745;SDS011;32493;50.514;9.678;2024-01-07T07:21:12;15.15;;;7.97;;
46745;SDS011;32493;50.514;9.678;2024-01-07T07:26:10;12.70;;;7.32;;
46745;SDS011;32493;50.514;9.678;2024-01-07T07:28:37;13.07;;;7.72;;
46745;SDS011;32493;50.514;9.678;2024-01-07T07:31:10;17.33;;;8.68;;
46745;SDS011;32493;50.514;9.678;2024-01-07T07:33:41;15.32;;;8.32;;
46745;SDS011;32493;50.514;9.678;2024-01-07T07:36:11;15.30;;;7.72;;
46745;SDS011;32493;50.514;9.678;2024-01-07T07:38:39;13.48;;;7.93;;
46745;SDS011;32493;50.514;9.678;2024-01-07T07:41:09;14.70;;;8.10;;
46745;SDS011;32493;50.514;9.678;2024-01-07T07:43:39;16.80;;;8.50;;
46745;SDS011;32493;50.514;9.678;2024-01-07T07:46:06;15.60;;;9.02;;
46745;SDS011;32493;50.514;9.678;2024-01-07T07:48:36;14.63;;;7.75;;
46745;SDS011;32493;50.514;9.678;2024-01-07T07:51:04;17.17;;;8.52;;
46745;SDS011;32493;50.514;9.678;2024-01-07T07:53:32;16.13;;;9.05;;
46745;SDS011;32493;50.514;9.678;2024-01-07T07:56:02;15.10;;;9.50;;
46745;SDS011;32493;50.514;9.678;2024-01-07T07:58:31;16.35;;;9.73;;
46745;SDS011;32493;50.514;9.678;2024-01-07T08:00:58;14.65;;;8.25;;
46745;SDS011;32493;50.514;9.678;2024-01-07T08:03:25;15.77;;;7.93;;
46745;SDS011;32493;50.514;9.678;2024-01-07T08:05:53;13.27;;;7.82;;
46745;SDS011;32493;50.514;9.678;2024-01-07T08:08:24;15.95;;;9.02;;
46745;SDS011;32493;50.514;9.678;2024-01-07T08:10:53;17.42;;;8.70;;
46745;SDS011;32493;50.514;9.678;2024-01-07T08:13:21;15.00;;;7.78;;
46745;SDS011;32493;50.514;9.678;2024-01-07T08:15:48;12.70;;;7.65;;
46745;SDS011;32493;50.514;9.678;2024-01-07T08:18:15;13.93;;;6.70;;
46745;SDS011;32493;50.514;9.678;2024-01-07T08:20:46;11.50;;;7.20;;
46745;SDS011;32493;50.514;9.678;2024-01-07T08:23:16;12.27;;;6.85;;
46745;SDS011;32493;50.514;9.678;2024-01-07T08:25:44;10.90;;;6.45;;
46745;SDS011;32493;50.514;9.678;2024-01-07T08:28:15;12.13;;;7.50;;
46745;SDS011;32493;50.514;9.678;2024-01-07T08:30:49;11.95;;;6.18;;
46745;SDS011;32493;50.514;9.678;2024-01-07T08:33:18;22.70;;;8.43;;
46745;SDS011;32493;50.514;9.678;2024-01-07T08:35:48;14.43;;;7.20;;
46745;SDS011;32493;50.514;9.678;2024-01-07T08:38:16;13.15;;;7.15;;
46745;SDS011;32493;50.514;9.678;2024-01-07T08:43:13;12.70;;;6.28;;
46745;SDS011;32493;50.514;9.678;2024-01-07T08:45:41;13.88;;;6.97;;
46745;SDS011;32493;50.514;9.678;2024-01-07T08:48:13;11.65;;;6.72;;
46745;SDS011;32493;50.514;9.678;2024-01-07T08:50:40;13.07;;;6.88;;
46745;SDS011;32493;50.514;9.678;2024-01-07T08:53:08;12.80;;;6.60;;
46745;SDS011;32493;50.514;9.678;2024-01-07T08:55:39;11.40;;;6.35;;
46745;SDS011;32493;50.514;9.678;2024-01-07T08:58:06;14.10;;;6.40;;
46745;SDS011;32493;50.514;9.678;2024-01-07T09:00:34;13.35;;;7.00;;
46745;SDS011;32493;50.514;9.678;2024-01-07T09:10:23;11.30;;;6.47;;
46745;SDS011;32493;50.514;9.678;2024-01-07T09:12:55;14.88;;;7.28;;
46745;SDS011;32493;50.514;9.678;2024-01-07T09:15:26;13.27;;;7.15;;
46745;SDS011;32493;50.514;9.678;2024-01-07T09:17:57;12.13;;;6.25;;
46745;SDS011;32493;50.514;9.678;2024-01-07T09:20:26;15.30;;;6.82;;
46745;SDS011;32493;50.514;9.678;2024-01-07T09:22:57;13.52;;;6.72;;
46745;SDS011;32493;50.514;9.678;2024-01-07T09:25:24;16.17;;;6.72;;
46745;SDS011;32493;50.514;9.678;2024-01-07T09:27:53;13.90;;;6.68;;
46745;SDS011;32493;50.514;9.678;2024-01-07T09:30:20;14.07;;;6.68;;
46745;SDS011;32493;50.514;9.678;2024-01-07T09:32:48;12.40;;;6.50;;
46745;SDS011;32493;50.514;9.678;2024-01-07T09:35:20;13.88;;;5.72;;
46745;SDS011;32493;50.514;9.678;2024-01-07T09:37:51;9.73;;;4.68;;
46745;SDS011;32493;50.514;9.678;2024-01-07T09:40:22;13.13;;;6.45;;
46745;SDS011;32493;50.514;9.678;2024-01-07T09:42:51;13.30;;;5.32;;
46745;SDS011;32493;50.514;9.678;2024-01-07T09:45:20;12.45;;;5.63;;
46745;SDS011;32493;50.514;9.678;2024-01-07T09:47:48;10.10;;;5.03;;
46745;SDS011;32493;50.514;9.678;2024-01-07T09:50:24;11.55;;;5.90;;
46745;SDS011;32493;50.514;9.678;2024-01-07T09:52:55;10.13;;;5.38;;
46745;SDS011;32493;50.514;9.678;2024-01-07T09:55:32;11.90;;;6.30;;
46745;SDS011;32493;50.514;9.678;2024-01-07T09:58:15;11.65;;;5.78;;
46745;SDS011;32493;50.514;9.678;2024-01-07T10:00:48;13.07;;;6.05;;
46745;SDS011;32493;50.514;9.678;2024-01-07T10:03:17;11.50;;;4.43;;
46745;SDS011;32493;50.514;9.678;2024-01-07T10:05:45;14.30;;;6.25;;
46745;SDS011;32493;50.514;9.678;2024-01-07T10:08:12;10.00;;;5.32;;
46745;SDS011;32493;50.514;9.678;2024-01-07T10:10:43;12.90;;;6.43;;
46745;SDS011;32493;50.514;9.678;2024-01-07T10:13:12;14.85;;;7.82;;
46745;SDS011;32493;50.514;9.678;2024-01-07T10:15:41;14.15;;;7.22;;
46745;SDS011;32493;50.514;9.678;2024-01-07T10:20:37;15.32;;;7.70;;
46745;SDS011;32493;50.514;9.678;2024-01-07T10:23:09;14.27;;;6.97;;
46745;SDS011;32493;50.514;9.678;2024-01-07T10:25:40;11.38;;;6.07;;
46745;SDS011;32493;50.514;9.678;2024-01-07T10:28:10;12.45;;;6.75;;
46745;SDS011;32493;50.514;9.678;2024-01-07T10:30:38;13.35;;;6.72;;
46745;SDS011;32493;50.514;9.678;2024-01-07T10:33:10;13.88;;;6.35;;
46745;SDS011;32493;50.514;9.678;2024-01-07T10:35:38;15.35;;;6.82;;
46745;SDS011;32493;50.514;9.678;2024-01-07T10:38:06;14.40;;;6.32;;
46745;SDS011;32493;50.514;9.678;2024-01-07T10:40:34;16.08;;;6.80;;
46745;SDS011;32493;50.514;9.678;2024-01-07T10:43:02;11.48;;;6.28;;
46745;SDS011;32493;50.514;9.678;2024-01-07T10:45:30;16.75;;;6.57;;
46745;SDS011;32493;50.514;9.678;2024-01-07T10:47:59;13.23;;;6.70;;
46745;SDS011;32493;50.514;9.678;2024-01-07T10:50:33;14.57;;;7.32;;
46745;SDS011;32493;50.514;9.678;2024-01-07T10:53:04;14.95;;;7.45;;
46745;SDS011;32493;50.514;9.678;2024-01-07T10:55:34;12.45;;;7.07;;
46745;SDS011;32493;50.514;9.678;2024-01-07T10:58:06;12.32;;;6.85;;
46745;SDS011;32493;50.514;9.678;2024-01-07T11:00:34;16.63;;;7.18;;
46745;SDS011;32493;50.514;9.678;2024-01-07T11:03:10;14.98;;;7.60;;
46745;SDS011;32493;50.514;9.678;2024-01-07T11:05:49;15.38;;;8.18;;
46745;SDS011;32493;50.514;9.678;2024-01-07T11:08:25;12.95;;;6.63;;
46745;SDS011;32493;50.514;9.678;2024-01-07T11:11:14;11.57;;;5.53;;
46745;SDS011;32493;50.514;9.678;2024-01-07T11:13:44;10.25;;;5.15;;
46745;SDS011;32493;50.514;9.678;2024-01-07T11:16:14;12.15;;;5.47;;
46745;SDS011;32493;50.514;9.678;2024-01-07T11:19:13;11.65;;;5.15;;
46745;SDS011;32493;50.514;9.678;2024-01-07T11:21:42;11.75;;;5.70;;
46745;SDS011;32493;50.514;9.678;2024-01-07T11:24:09;10.50;;;5.47;;
46745;SDS011;32493;50.514;9.678;2024-01-07T11:26:38;12.63;;;5.90;;
46745;SDS011;32493;50.514;9.678;2024-01-07T11:29:08;14.77;;;6.95;;
46745;SDS011;32493;50.514;9.678;2024-01-07T11:31:42;15.40;;;7.30;;
46745;SDS011;32493;50.514;9.678;2024-01-07T11:34:10;11.68;;;4.75;;
46745;SDS011;32493;50.514;9.678;2024-01-07T11:36:38;9.48;;;4.75;;
46745;SDS011;32493;50.514;9.678;2024-01-07T11:39:06;13.95;;;6.65;;
46745;SDS011;32493;50.514;9.678;2024-01-07T11:41:37;9.20;;;4.95;;
46745;SDS011;32493;50.514;9.678;2024-01-07T11:44:07;9.35;;;5.18;;
46745;SDS011;32493;50.514;9.678;2024-01-07T11:46:38;11.52;;;5.20;;
46745;SDS011;32493;50.514;9.678;2024-01-07T11:49:05;10.18;;;5.80;;
46745;SDS011;32493;50.514;9.678;2024-01-07T11:51:36;12.02;;;4.68;;
46745;SDS011;32493;50.514;9.678;2024-01-07T11:54:04;10.73;;;5.28;;
46745;SDS011;32493;50.514;9.678;2024-01-07T11:56:34;8.60;;;4.60;;
46745;SDS011;32493;50.514;9.678;2024-01-07T11:59:06;11.00;;;5.47;;
46745;SDS011;32493;50.514;9.678;2024-01-07T12:01:34;10.98;;;5.38;;
46745;SDS011;32493;50.514;9.678;2024-01-07T12:04:05;11.07;;;5.90;;
46745;SDS011;32493;50.514;9.678;2024-01-07T12:06:33;10.18;;;5.07;;
46745;SDS011;32493;50.514;9.678;2024-01-07T12:09:01;19.55;;;6.65;;
46745;SDS011;32493;50.514;9.678;2024-01-07T12:11:30;8.18;;;3.78;;
46745;SDS011;32493;50.514;9.678;2024-01-07T12:13:58;11.55;;;4.40;;
46745;SDS011;32493;50.514;9.678;2024-01-07T12:16:31;34.15;;;8.30;;
46745;SDS011;32493;50.514;9.678;2024-01-07T12:18:58;34.67;;;10.27;;
46745;SDS011;32493;50.514;9.678;2024-01-07T12:21:25;55.25;;;13.18;;
46745;SDS011;32493;50.514;9.678;2024-01-07T12:23:56;30.25;;;8.27;;
46745;SDS011;32493;50.514;9.678;2024-01-07T12:26:27;20.48;;;10.13;;
46745;SDS011;32493;50.514;9.678;2024-01-07T12:28:55;7.55;;;4.05;;
46745;SDS011;32493;50.514;9.678;2024-01-07T12:31:33;7.60;;;4.07;;
46745;SDS011;32493;50.514;9.678;2024-01-07T12:34:02;5.53;;;3.40;;
46745;SDS011;32493;50.514;9.678;2024-01-07T12:36:30;4.97;;;2.67;;
46745;SDS011;32493;50.514;9.678;2024-01-07T12:39:02;5.25;;;3.17;;
46745;SDS011;32493;50.514;9.678;2024-01-07T12:41:38;5.63;;;3.58;;
46745;SDS011;32493;50.514;9.678;2024-01-07T12:44:04;4.63;;;2.00;;
46745;SDS011;32493;50.514;9.678;2024-01-07T12:46:33;4.63;;;2.88;;
46745;SDS011;32493;50.514;9.678;2024-01-07T12:49:00;4.75;;;2.45;;
46745;SDS011;32493;50.514;9.678;2024-01-07T12:51:28;4.80;;;2.70;;
46745;SDS011;32493;50.514;9.678;2024-01-07T12:53:57;4.93;;;2.70;;
46745;SDS011;32493;50.514;9.678;2024-01-07T12:56:29;4.75;;;2.80;;
46745;SDS011;32493;50.514;9.678;2024-01-07T12:58:58;3.97;;;2.47;;
46745;SDS011;32493;50.514;9.678;2024-01-07T13:01:27;5.55;;;3.10;;
46745;SDS011;32493;50.514;9.678;2024-01-07T13:03:54;3.53;;;2.40;;
46745;SDS011;32493;50.514;9.678;2024-01-07T13:06:26;3.50;;;2.10;;
46745;SDS011;32493;50.514;9.678;2024-01-07T13:08:54;6.50;;;2.85;;
46745;SDS011;32493;50.514;9.678;2024-01-07T13:11:23;3.42;;;2.03;;
46745;SDS011;32493;50.514;9.678;2024-01-07T13:16:18;8.68;;;3.83;;
46745;SDS011;32493;50.514;9.678;2024-01-07T13:18:46;3.60;;;2.10;;
46745;SDS011;32493;50.514;9.678;2024-01-07T13:21:13;4.13;;;2.10;;
46745;SDS011;32493;50.514;9.678;2024-01-07T13:23:44;3.97;;;2.40;;
46745;SDS011;32493;50.514;9.678;2024-01-07T13:26:15;10.98;;;4.28;;
46745;SDS011;32493;50.514;9.678;2024-01-07T13:28:43;10.60;;;3.25;;
46745;SDS011;32493;50.514;9.678;2024-01-07T13:31:12;13.90;;;4.88;;
46745;SDS011;32493;50.514;9.678;2024-01-07T13:33:40;5.65;;;2.75;;
46745;SDS011;32493;50.514;9.678;2024-01-07T13:36:09;5.18;;;2.30;;
46745;SDS011;32493;50.514;9.678;2024-01-07T13:38:40;7.40;;;3.75;;
46745;SDS011;32493;50.514;9.678;2024-01-07T13:41:11;10.00;;;3.90;;
46745;SDS011;32493;50.514;9.678;2024-01-07T13:43:40;11.82;;;3.88;;
46745;SDS011;32493;50.514;9.678;2024-01-07T13:46:08;8.00;;;3.47;;
46745;SDS011;32493;50.514;9.678;2024-01-07T13:48:35;8.95;;;3.60;;
46745;SDS011;32493;50.514;9.678;2024-01-07T13:51:06;8.30;;;3.10;;
46745;SDS011;32493;50.514;9.678;2024-01-07T13:53:33;11.57;;;4.47;;
46745;SDS011;32493;50.514;9.678;2024-01-07T13:56:03;9.82;;;3.75;;
46745;SDS011;32493;50.514;9.678;2024-01-07T13:58:34;8.27;;;3.80;;
46745;SDS011;32493;50.514;9.678;2024-01-07T14:01:02;7.85;;;2.85;;
46745;SDS011;32493;50.514;9.678;2024-01-07T14:06:02;4.30;;;1.98;;
46745;SDS011;32493;50.514;9.678;2024-01-07T14:08:31;6.00;;;2.45;;
46745;SDS011;32493;50.514;9.678;2024-01-07T14:11:01;8.00;;;3.78;;
46745;SDS011;32493;50.514;9.678;2024-01-07T14:13:30;7.57;;;3.60;;
46745;SDS011;32493;50.514;9.678;2024-01-07T14:16:00;9.65;;;3.63;;
46745;SDS011;32493;50.514;9.678;2024-01-07T14:18:28;8.35;;;3.60;;
46745;SDS011;32493;50.514;9.678;2024-01-07T14:20:56;7.15;;;3.15;;
46745;SDS011;32493;50.514;9.678;2024-01-07T14:23:24;7.82;;;3.20;;
46745;SDS011;32493;50.514;9.678;2024-01-07T14:25:52;9.32;;;3.67;;
46745;SDS011;32493;50.514;9.678;2024-01-07T14:30:49;9.05;;;2.97;;
46745;SDS011;32493;50.514;9.678;2024-01-07T14:33:16;7.90;;;3.17;;
46745;SDS011;32493;50.514;9.678;2024-01-07T14:35:45;9.25;;;4.10;;
46745;SDS011;32493;50.514;9.678;2024-01-07T14:38:15;9.15;;;3.38;;
46745;SDS011;32493;50.514;9.678;2024-01-07T14:40:47;9.10;;;3.42;;
46745;SDS011;32493;50.514;9.678;2024-01-07T14:43:14;10.27;;;3.80;;
46745;SDS011;32493;50.514;9.678;2024-01-07T14:45:43;9.15;;;3.25;;
46745;SDS011;32493;50.514;9.678;2024-01-07T14:48:10;23.55;;;7.45;;
46745;SDS011;32493;50.514;9.678;2024-01-07T14:50:37;10.43;;;3.50;;
46745;SDS011;32493;50.514;9.678;2024-01-07T14:53:07;2.42;;;1.42;;
46745;SDS011;32493;50.514;9.678;2024-01-07T14:55:37;5.07;;;1.60;;
46745;SDS011;32493;50.514;9.678;2024-01-07T14:58:05;7.28;;;2.78;;
46745;SDS011;32493;50.514;9.678;2024-01-07T15:03:00;21.70;;;5.72;;
46745;SDS011;32493;50.514;9.678;2024-01-07T15:05:28;18.33;;;5.43;;
46745;SDS011;32493;50.514;9.678;2024-01-07T15:07:56;20.55;;;5.07;;
46745;SDS011;32493;50.514;9.678;2024-01-07T15:12:51;6.07;;;3.28;;
46745;SDS011;32493;50.514;9.678;2024-01-07T15:15:28;3.40;;;1.67;;
46745;SDS011;32493;50.514;9.678;2024-01-07T15:17:58;3.83;;;2.25;;
46745;SDS011;32493;50.514;9.678;2024-01-07T15:20:28;5.22;;;2.50;;
46745;SDS011;32493;50.514;9.678;2024-01-07T15:22:56;3.20;;;1.88;;
46745;SDS011;32493;50.514;9.678;2024-01-07T15:25:24;4.95;;;2.13;;
46745;SDS011;32493;50.514;9.678;2024-01-07T15:27:53;3.28;;;1.50;;
46745;SDS011;32493;50.514;9.678;2024-01-07T15:30:21;2.33;;;1.65;;
46745;SDS011;32493;50.514;9.678;2024-01-07T15:32:50;7.45;;;3.05;;